Nearby METAR Reports

 

KSJC - San Jose, California, USA
Distance from station: NØ 14km
Oppdatert: 18/04/2021 13:53
Klart
Klart
 Vind fra calm
Vind: Stille
Temperatur: 11°C
Duggpunkt: 6°C
Fuktighet: 72%
Barometer: 1019.3 hPa
Clouds: Klart
Visibility: 16 km
2021/04/18 11:53 KSJC 181153Z AUTO 00000KT 10SM CLR 11/06 A3010 RMK AO2 SLP193 T01060061 10133 20100 53006 $
KNUQ - Moffett Nas/Mtn, California, USA
Distance from station: N 14km
Oppdatert: 14/04/2021 00:40
NOT Current

 
2021/04/13 22:40 KNUQ 132240Z AUTO RMK AO2 PNO PWINO TSNO
 
KPAO - Palo Alto, California, USA
Distance from station: NNV 23km
Oppdatert: 18/04/2021 05:47
NOT Current
Klart
Klart
 Vind fra NV
Vind: NV 11 km/h
Temperatur: 13°C
Duggpunkt: 8°C
Fuktighet: 72%
Barometer: 1017.9 hPa
Clouds: Klart
Visibility: 16 km
2021/04/18 03:47 KPAO 180347Z 32006KT 10SM SKC 13/08 A3006 RMK LAST
KRHV - San Jose/Reid, California, USA
Distance from station: ØNØ 19km
Oppdatert: 18/04/2021 06:55
NOT Current
Klart
Klart
 Vind fra VNV
Vind: VNV 6 km/h
Temperatur: 15°C
Duggpunkt: 7°C
Fuktighet: 59%
Barometer: 1018.6 hPa
Clouds: Klart
Visibility: 16 km
2021/04/18 04:55 KRHV 180455Z 29003KT 10SM SKC 15/07 A3008 RMK LAST
 
KOAK - Oakland, California, USA
Distance from station: NNV 50km
Oppdatert: 18/04/2021 13:53
Shallow fog, Klart
Shallow fog, Klart
 Vind fra calm
Vind: Stille
Temperatur: 9°C
Duggpunkt: 7°C
Fuktighet: 87%
Barometer: 1019.6 hPa
Oversikt: Shallow Fog
Clouds: Klart
Visibility: 16 km
2021/04/18 11:53 KOAK 181153Z 00000KT 10SM MIFG CLR 09/07 A3011 RMK AO2 SLP196 T00890072 10117 20083 53008
KSQL - San Carlos Airpo, California, USA
Distance from station: NV 34km
Oppdatert: 18/04/2021 13:55
Klart
Klart
 Vind fra calm
Vind: Stille
Temperatur: 9°C
Duggpunkt: 5°C
Fuktighet: 76%
Barometer: 1019.6 hPa
Clouds: Klart
Visibility: 16 km
2021/04/18 11:55 KSQL 181155Z AUTO 00000KT 10SM CLR 09/05 A3011 RMK AO2
 
KSFO - San Francisco, California, USA
Distance from station: NV 49km
Oppdatert: 18/04/2021 13:56
Few Clouds
Few Clouds
 Vind fra VNV
Vind: VNV 13 km/h
Temperatur: 10°C
Wind Chill: 8°C
Duggpunkt: 7°C
Fuktighet: 82%
Barometer: 1019.3 hPa
Clouds: Few Clouds
Visibility: 16 km
Cloud details: Few Clouds 91 m
2021/04/18 11:56 KSFO 181156Z 29007KT 10SM FEW003 10/07 A3010 RMK AO2 SLP192 T01000072 10117 20100 51007
KE16 - San Martin, California, USA
Distance from station: ØSØ 43km
Oppdatert: 18/04/2021 13:55
Klart
Klart
 Vind fra N
Vind: N 6 km/h
Temperatur: 6°C
Duggpunkt: 4°C
Fuktighet: 87%
Barometer: 1020 hPa
Clouds: Klart
Visibility: 16 km
2021/04/18 11:55 KE16 181155Z AUTO 36003KT 10SM CLR 06/04 A3012 RMK AO2 PWINO PNO
 
KWVI - Watsonville, California, USA
Distance from station: SSØ 44km
Oppdatert: 18/04/2021 13:53
Tåke, Overskyet
Tåke, Overskyet
 Vind fra calm
Vind: Stille
Temperatur: 9°C
Duggpunkt: 8°C
Fuktighet: 94%
Barometer: 1019.6 hPa
Oversikt: Tåke
Clouds: Overskyet
Visibility: 0.4 km
Cloud details: Overskyet 61 m
2021/04/18 11:53 KWVI 181153Z AUTO 00000KT 1/4SM FG VV002 09/08 A3011 RMK AO2 SLP194 T00890083 10106 20083 50003
KHAF - Half Moon Bay, California, USA
Distance from station: VNV 50km
Oppdatert: 18/04/2021 13:55
Mist, Overskyet
Mist, Overskyet
 Vind fra NNV
Vind: NNV 7 km/h
Temperatur: 9°C
Wind Chill: 8°C
Duggpunkt: 8°C
Fuktighet: 94%
Barometer: 1020 hPa
Oversikt: Mist
Clouds: Overskyet
Visibility: 5 km
Cloud details: Overskyet 91 m
2021/04/18 11:55 KHAF 181155Z AUTO 33004KT 3SM BR OVC003 09/08 A3012 RMK AO2
 
KHWD - Hayward, California, USA
Distance from station: N 44km
Oppdatert: 18/04/2021 13:54
Klart
Klart
 Vind fra NØ
Vind: NØ 6 km/h
Temperatur: 8°C
Duggpunkt: 4°C
Fuktighet: 76%
Barometer: 1019.3 hPa
Clouds: Klart
Visibility: 16 km
2021/04/18 11:54 KHWD 181154Z AUTO 05003KT 10SM CLR 08/04 A3010 RMK AO2 SLP202 T00830044 10128 20083 51007
KLVK - Livermore, California, USA
Distance from station: NNØ 51km
Oppdatert: 18/04/2021 13:53
Klart
Klart
 Vind fra calm
Vind: Stille
Temperatur: 8°C
Duggpunkt: 3°C
Fuktighet: 71%
Barometer: 1019.3 hPa
Clouds: Klart
Visibility: 16 km
2021/04/18 11:53 KLVK 181153Z AUTO 00000KT 10SM CLR 08/03 A3010 RMK AO2 SLP188 T00830028 10150 20078 51008